createdAt,value
2023-05-20T00:00:52.162Z,529.00
2023-05-20T00:01:53.231Z,527.00
2023-05-20T00:02:53.450Z,526.00
2023-05-20T00:03:52.372Z,533.00
2023-05-20T00:04:52.727Z,532.00
2023-05-20T00:05:53.594Z,530.00
2023-05-20T00:06:52.392Z,530.00
2023-05-20T00:07:53.563Z,531.00
2023-05-20T00:08:53.604Z,532.00
2023-05-20T00:09:53.506Z,528.00
2023-05-20T00:10:52.636Z,534.00
2023-05-20T00:11:52.599Z,531.00
2023-05-20T00:12:53.589Z,527.00
2023-05-20T00:13:52.685Z,529.00
2023-05-20T00:14:53.818Z,531.00
2023-05-20T00:15:52.811Z,532.00
2023-05-20T00:16:53.970Z,529.00
2023-05-20T00:17:52.952Z,535.00
2023-05-20T00:18:53.958Z,536.00
2023-05-20T00:19:52.954Z,534.00
2023-05-20T00:20:52.959Z,528.00
2023-05-20T00:21:54.058Z,531.00
2023-05-20T00:22:53.018Z,531.00
2023-05-20T00:23:54.022Z,534.00
2023-05-20T00:24:53.052Z,528.00
2023-05-20T00:25:54.247Z,529.00
2023-05-20T00:26:54.320Z,528.00
2023-05-20T00:27:53.177Z,529.00
2023-05-20T00:28:54.198Z,533.00
2023-05-20T00:29:53.186Z,530.00
2023-05-20T00:30:53.177Z,528.00
2023-05-20T00:31:53.233Z,527.00
2023-05-20T00:32:53.386Z,532.00
2023-05-20T00:33:53.405Z,535.00
2023-05-20T00:34:53.286Z,531.00
2023-05-20T00:35:53.243Z,520.00
2023-05-20T00:36:54.307Z,526.00
2023-05-20T00:37:54.298Z,530.00
2023-05-20T00:38:54.292Z,528.00
2023-05-20T00:39:53.423Z,530.00
2023-05-20T00:40:54.440Z,525.00
2023-05-20T00:41:53.440Z,527.00
2023-05-20T00:42:53.564Z,526.00
2023-05-20T00:43:53.424Z,532.00
2023-05-20T00:44:54.415Z,531.00
2023-05-20T00:45:53.474Z,533.00
2023-05-20T00:46:54.442Z,526.00
2023-05-20T00:47:54.495Z,531.00
2023-05-20T00:48:54.488Z,525.00
2023-05-20T00:49:54.540Z,536.00
2023-05-20T00:50:53.517Z,531.00
2023-05-20T00:51:53.561Z,530.00
2023-05-20T00:52:53.622Z,523.00
2023-05-20T00:53:53.582Z,532.00
2023-05-20T00:54:53.599Z,530.00
2023-05-20T00:55:53.573Z,531.00
2023-05-20T00:56:53.576Z,525.00
2023-05-20T00:57:53.597Z,523.00
2023-05-20T00:58:53.653Z,528.00
2023-05-20T00:59:53.906Z,529.00
2023-05-20T01:00:53.585Z,531.00
2023-05-20T01:01:54.688Z,529.00
2023-05-20T01:02:54.954Z,529.00
2023-05-20T01:03:53.833Z,529.00
2023-05-20T01:04:53.880Z,530.00
2023-05-20T01:05:54.683Z,530.00
2023-05-20T01:06:53.648Z,525.00
2023-05-20T01:07:53.864Z,528.00
2023-05-20T01:08:54.953Z,531.00
2023-05-20T01:09:53.810Z,531.00
2023-05-20T01:10:54.774Z,526.00
2023-05-20T01:11:54.823Z,526.00
2023-05-20T01:12:53.744Z,532.00
2023-05-20T01:13:54.796Z,530.00
2023-05-20T01:14:53.813Z,531.00
2023-05-20T01:15:53.884Z,533.00
2023-05-20T01:16:54.824Z,536.00
2023-05-20T01:17:54.097Z,530.00
2023-05-20T01:18:55.011Z,527.00
2023-05-20T01:19:54.870Z,530.00
2023-05-20T01:20:54.952Z,532.00
2023-05-20T01:21:54.073Z,521.00
2023-05-20T01:22:53.891Z,529.00
2023-05-20T01:23:54.070Z,530.00
2023-05-20T01:24:53.883Z,530.00
2023-05-20T01:25:54.061Z,533.00
2023-05-20T01:26:53.915Z,532.00
2023-05-20T01:27:54.947Z,530.00
2023-05-20T01:28:54.952Z,525.00
2023-05-20T01:29:55.065Z,535.00
2023-05-20T01:30:55.010Z,532.00
2023-05-20T01:31:54.050Z,531.00
2023-05-20T01:32:55.400Z,528.00
2023-05-20T01:33:55.052Z,534.00
2023-05-20T01:34:54.291Z,531.00
2023-05-20T01:35:54.112Z,533.00
2023-05-20T01:36:54.284Z,533.00
2023-05-20T01:37:54.086Z,527.00
2023-05-20T01:38:54.215Z,527.00
2023-05-20T01:39:54.368Z,527.00
2023-05-20T01:40:55.280Z,531.00
2023-05-20T01:41:55.129Z,535.00
2023-05-20T01:42:54.145Z,529.00
2023-05-20T01:43:55.330Z,525.00
2023-05-20T01:44:54.181Z,535.00
2023-05-20T01:45:54.353Z,525.00
2023-05-20T01:46:54.236Z,528.00
2023-05-20T01:47:54.546Z,528.00
2023-05-20T01:48:54.417Z,527.00
2023-05-20T01:49:55.552Z,532.00
2023-05-20T01:50:55.450Z,533.00
2023-05-20T01:51:54.453Z,526.00
2023-05-20T01:52:55.270Z,527.00
2023-05-20T01:53:55.337Z,530.00
2023-05-20T01:54:55.353Z,533.00
2023-05-20T01:55:54.319Z,530.00
2023-05-20T01:56:55.477Z,531.00
2023-05-20T01:57:54.439Z,532.00
2023-05-20T01:58:54.486Z,530.00
2023-05-20T01:59:55.430Z,530.00
2023-05-20T02:00:55.423Z,528.00
2023-05-20T02:01:54.485Z,530.00
2023-05-20T02:02:54.531Z,531.00
2023-05-20T02:03:54.553Z,534.00
2023-05-20T02:04:55.437Z,532.00
2023-05-20T02:05:55.555Z,534.00
2023-05-20T02:06:55.659Z,530.00
2023-05-20T02:07:54.546Z,524.00
2023-05-20T02:08:55.547Z,531.00
2023-05-20T02:09:54.726Z,530.00
2023-05-20T02:10:54.505Z,533.00
2023-05-20T02:11:54.502Z,537.00
2023-05-20T02:12:54.503Z,532.00
2023-05-20T02:13:54.568Z,531.00
2023-05-20T02:14:55.579Z,531.00
2023-05-20T02:15:54.549Z,529.00
2023-05-20T02:16:54.721Z,531.00
2023-05-20T02:17:54.634Z,529.00
2023-05-20T02:18:55.632Z,529.00
2023-05-20T02:19:55.610Z,532.00
2023-05-20T02:20:55.894Z,530.00
2023-05-20T02:21:54.896Z,534.00
2023-05-20T02:22:54.706Z,534.00
2023-05-20T02:23:54.697Z,531.00
2023-05-20T02:24:54.732Z,530.00
2023-05-20T02:25:55.762Z,524.00
2023-05-20T02:26:54.733Z,529.00
2023-05-20T02:27:55.803Z,528.00
2023-05-20T02:28:54.912Z,531.00
2023-05-20T02:29:54.746Z,533.00
2023-05-20T02:30:55.787Z,531.00
2023-05-20T02:31:55.905Z,530.00
2023-05-20T02:32:54.863Z,529.00
2023-05-20T02:33:54.863Z,526.00
2023-05-20T02:34:55.961Z,529.00
2023-05-20T02:35:54.940Z,531.00
2023-05-20T02:36:54.892Z,533.00
2023-05-20T02:37:54.853Z,532.00
2023-05-20T02:38:55.075Z,529.00
2023-05-20T02:39:56.086Z,528.00
2023-05-20T02:40:55.058Z,525.00
2023-05-20T02:41:54.911Z,530.00
2023-05-20T02:42:54.997Z,529.00
2023-05-20T02:43:55.911Z,533.00
2023-05-20T02:44:56.116Z,525.00
2023-05-20T02:45:55.145Z,532.00
2023-05-20T02:46:54.982Z,526.00
2023-05-20T02:47:55.055Z,533.00
2023-05-20T02:48:55.018Z,531.00
2023-05-20T02:49:55.080Z,524.00
2023-05-20T02:50:55.006Z,533.00
2023-05-20T02:51:54.994Z,532.00
2023-05-20T02:52:55.005Z,527.00
2023-05-20T02:53:55.015Z,528.00
2023-05-20T02:54:55.047Z,533.00
2023-05-20T02:55:56.130Z,531.00
2023-05-20T02:56:55.038Z,531.00
2023-05-20T02:57:55.180Z,528.00
2023-05-20T02:58:55.060Z,527.00
2023-05-20T02:59:56.071Z,528.00
2023-05-20T03:00:55.411Z,528.00
2023-05-20T03:01:55.332Z,532.00
2023-05-20T03:02:56.139Z,527.00
2023-05-20T03:03:55.157Z,534.00
2023-05-20T03:04:56.313Z,532.00
2023-05-20T03:05:55.130Z,528.00
2023-05-20T03:06:56.155Z,531.00
2023-05-20T03:07:56.184Z,529.00
2023-05-20T03:08:56.278Z,527.00
2023-05-20T03:09:55.190Z,524.00
2023-05-20T03:10:55.409Z,526.00
2023-05-20T03:11:55.193Z,529.00
2023-05-20T03:12:55.346Z,529.00
2023-05-20T03:13:55.471Z,530.00
2023-05-20T03:14:55.474Z,525.00
2023-05-20T03:15:55.356Z,527.00
2023-05-20T03:16:55.251Z,533.00
2023-05-20T03:17:55.285Z,532.00
2023-05-20T03:18:55.363Z,529.00
2023-05-20T03:19:55.268Z,530.00
2023-05-20T03:20:56.385Z,531.00
2023-05-20T03:21:56.271Z,532.00
2023-05-20T03:22:55.349Z,532.00
2023-05-20T03:23:55.378Z,526.00
2023-05-20T03:24:55.319Z,530.00
2023-05-20T03:25:55.325Z,532.00
2023-05-20T03:26:55.368Z,521.00
2023-05-20T03:27:56.367Z,525.00
2023-05-20T03:28:55.422Z,524.00
2023-05-20T03:29:56.379Z,527.00
2023-05-20T03:30:56.695Z,526.00
2023-05-20T03:31:55.480Z,532.00
2023-05-20T03:32:55.631Z,527.00
2023-05-20T03:33:55.389Z,525.00
2023-05-20T03:34:56.497Z,532.00
2023-05-20T03:35:55.416Z,530.00
2023-05-20T03:36:56.471Z,528.00
2023-05-20T03:37:56.473Z,530.00
2023-05-20T03:38:55.467Z,527.00
2023-05-20T03:39:56.616Z,522.00
2023-05-20T03:40:56.696Z,528.00
2023-05-20T03:41:56.642Z,530.00
2023-05-20T03:42:55.785Z,531.00
2023-05-20T03:43:56.688Z,527.00
2023-05-20T03:44:55.671Z,526.00
2023-05-20T03:45:55.560Z,530.00
2023-05-20T03:46:56.783Z,527.00
2023-05-20T03:47:56.645Z,527.00
2023-05-20T03:48:56.748Z,527.00
2023-05-20T03:49:55.670Z,531.00
2023-05-20T03:50:55.794Z,530.00
2023-05-20T03:51:55.564Z,527.00
2023-05-20T03:52:55.577Z,525.00
2023-05-20T03:53:56.654Z,527.00
2023-05-20T03:54:55.690Z,531.00
2023-05-20T03:55:55.810Z,527.00
2023-05-20T03:56:55.861Z,528.00
2023-05-20T03:57:55.640Z,531.00
2023-05-20T03:58:56.771Z,532.00
2023-05-20T03:59:55.740Z,529.00
2023-05-20T04:00:55.663Z,526.00
2023-05-20T04:01:56.731Z,529.00
2023-05-20T04:02:55.770Z,531.00
2023-05-20T04:03:55.844Z,523.00
2023-05-20T04:04:55.828Z,526.00
2023-05-20T04:05:56.729Z,526.00
2023-05-20T04:06:55.748Z,527.00
2023-05-20T04:07:56.892Z,529.00
2023-05-20T04:08:55.935Z,528.00
2023-05-20T04:09:55.875Z,529.00
2023-05-20T04:10:57.009Z,523.00
2023-05-20T04:11:56.882Z,528.00
2023-05-20T04:12:55.980Z,523.00
2023-05-20T04:13:56.774Z,528.00
2023-05-20T04:14:55.796Z,527.00
2023-05-20T04:15:56.810Z,527.00
2023-05-20T04:16:57.084Z,527.00
2023-05-20T04:17:55.928Z,528.00
2023-05-20T04:18:56.919Z,526.00
2023-05-20T04:19:55.870Z,523.00
2023-05-20T04:20:56.860Z,526.00
2023-05-20T04:21:55.877Z,524.00
2023-05-20T04:22:56.900Z,525.00
2023-05-20T04:23:56.901Z,531.00
2023-05-20T04:24:56.917Z,523.00
2023-05-20T04:25:57.171Z,530.00
2023-05-20T04:26:55.925Z,527.00
2023-05-20T04:27:56.935Z,529.00
2023-05-20T04:28:56.019Z,530.00
2023-05-20T04:29:56.200Z,530.00
2023-05-20T04:30:56.169Z,526.00
2023-05-20T04:31:56.142Z,523.00
2023-05-20T04:32:57.011Z,526.00
2023-05-20T04:33:56.033Z,528.00
2023-05-20T04:34:57.051Z,522.00
2023-05-20T04:35:56.163Z,527.00
2023-05-20T04:36:56.122Z,527.00
2023-05-20T04:37:56.027Z,525.00
2023-05-20T04:38:56.042Z,529.00
2023-05-20T04:39:56.118Z,524.00
2023-05-20T04:40:56.047Z,526.00
2023-05-20T04:41:56.247Z,530.00
2023-05-20T04:42:57.327Z,525.00
2023-05-20T04:43:56.102Z,524.00
2023-05-20T04:44:57.244Z,524.00
2023-05-20T04:45:57.453Z,524.00
2023-05-20T04:46:57.366Z,524.00
2023-05-20T04:47:56.447Z,528.00
2023-05-20T04:48:56.191Z,526.00
2023-05-20T04:49:56.276Z,525.00
2023-05-20T04:50:56.303Z,532.00
2023-05-20T04:51:57.334Z,528.00
2023-05-20T04:52:56.206Z,527.00
2023-05-20T04:53:56.205Z,524.00
2023-05-20T04:54:57.255Z,529.00
2023-05-20T04:55:57.348Z,521.00
2023-05-20T04:56:56.441Z,531.00
2023-05-20T04:57:56.282Z,529.00
2023-05-20T04:58:57.439Z,529.00
2023-05-20T04:59:56.415Z,526.00
2023-05-20T05:00:56.397Z,525.00
2023-05-20T05:01:57.529Z,526.00
2023-05-20T05:02:57.478Z,525.00
2023-05-20T05:03:56.361Z,526.00
2023-05-20T05:04:56.539Z,530.00
2023-05-20T05:05:56.457Z,526.00
2023-05-20T05:06:57.605Z,527.00
2023-05-20T05:07:56.571Z,521.00
2023-05-20T05:08:57.460Z,522.00
2023-05-20T05:09:56.564Z,529.00
2023-05-20T05:10:56.503Z,522.00
2023-05-20T05:11:56.503Z,526.00
2023-05-20T05:12:57.562Z,522.00
2023-05-20T05:13:57.555Z,528.00
2023-05-20T05:14:57.703Z,528.00
2023-05-20T05:15:56.635Z,523.00
2023-05-20T05:16:56.737Z,526.00
2023-05-20T05:17:56.706Z,521.00
2023-05-20T05:18:56.721Z,527.00
2023-05-20T05:19:57.863Z,523.00
2023-05-20T05:20:57.820Z,524.00
2023-05-20T05:21:56.838Z,525.00
2023-05-20T05:22:56.730Z,524.00
2023-05-20T05:23:58.517Z,524.00
2023-05-20T05:24:56.954Z,523.00
2023-05-20T05:25:56.915Z,528.00
2023-05-20T05:26:56.876Z,531.00
2023-05-20T05:27:57.007Z,523.00
2023-05-20T05:28:56.992Z,528.00
2023-05-20T05:29:57.900Z,523.00
2023-05-20T05:30:58.007Z,527.00
2023-05-20T05:31:57.960Z,523.00
2023-05-20T05:32:56.952Z,523.00
2023-05-20T05:33:57.872Z,528.00
2023-05-20T05:34:56.887Z,521.00
2023-05-20T05:35:56.908Z,522.00
2023-05-20T05:36:57.955Z,524.00
2023-05-20T05:37:57.040Z,524.00
2023-05-20T05:38:57.101Z,529.00
2023-05-20T05:39:57.034Z,527.00
2023-05-20T05:40:56.994Z,523.00
2023-05-20T05:41:57.009Z,523.00
2023-05-20T05:42:57.185Z,525.00
2023-05-20T05:43:58.110Z,520.00
2023-05-20T05:44:57.113Z,523.00
2023-05-20T05:45:57.122Z,524.00
2023-05-20T05:46:57.351Z,518.00
2023-05-20T05:47:58.279Z,528.00
2023-05-20T05:48:57.211Z,524.00
2023-05-20T05:49:58.215Z,524.00
2023-05-20T05:50:58.251Z,527.00
2023-05-20T05:51:58.431Z,527.00
2023-05-20T05:52:57.315Z,521.00
2023-05-20T05:53:58.389Z,528.00
2023-05-20T05:54:58.401Z,525.00
2023-05-20T05:55:58.401Z,524.00
2023-05-20T05:56:58.422Z,523.00
2023-05-20T05:57:58.419Z,528.00
2023-05-20T05:58:57.585Z,529.00
2023-05-20T05:59:58.685Z,527.00
2023-05-20T06:00:57.748Z,525.00
2023-05-20T06:01:57.571Z,528.00
2023-05-20T06:02:57.726Z,522.00
2023-05-20T06:03:57.911Z,525.00
2023-05-20T06:04:57.618Z,526.00
2023-05-20T06:05:58.763Z,524.00
2023-05-20T06:06:58.722Z,529.00
2023-05-20T06:07:57.659Z,528.00
2023-05-20T06:08:57.677Z,524.00
2023-05-20T06:09:57.874Z,521.00
2023-05-20T06:10:59.044Z,528.00
2023-05-20T06:11:57.763Z,526.00
2023-05-20T06:12:58.856Z,521.00
2023-05-20T06:13:58.831Z,525.00
2023-05-20T06:14:58.888Z,522.00
2023-05-20T06:15:58.970Z,525.00
2023-05-20T06:16:59.099Z,526.00
2023-05-20T06:17:58.967Z,531.00
2023-05-20T06:19:01.623Z,520.00
2023-05-20T06:19:58.062Z,521.00
2023-05-20T06:20:57.930Z,521.00
2023-05-20T06:21:58.952Z,524.00
2023-05-20T06:22:57.939Z,527.00
2023-05-20T06:23:58.128Z,529.00
2023-05-20T06:24:57.925Z,529.00
2023-05-20T06:25:59.184Z,527.00
2023-05-20T06:26:57.989Z,526.00
2023-05-20T06:27:57.994Z,530.00
2023-05-20T06:28:59.087Z,531.00
2023-05-20T06:29:59.105Z,526.00
2023-05-20T06:30:58.388Z,527.00
2023-05-20T06:31:58.281Z,526.00
2023-05-20T06:32:58.247Z,523.00
2023-05-20T06:33:59.310Z,527.00
2023-05-20T06:34:58.170Z,521.00
2023-05-20T06:35:58.335Z,523.00
2023-05-20T06:36:59.229Z,528.00
2023-05-20T06:37:59.300Z,526.00
2023-05-20T06:38:58.278Z,528.00
2023-05-20T06:39:58.282Z,523.00
2023-05-20T06:40:58.420Z,529.00
2023-05-20T06:41:59.553Z,525.00
2023-05-20T06:42:58.422Z,529.00
2023-05-20T06:43:59.439Z,526.00
2023-05-20T06:44:58.296Z,524.00
2023-05-20T06:45:58.626Z,524.00
2023-05-20T06:46:58.546Z,531.00
2023-05-20T06:47:59.354Z,526.00
2023-05-20T06:48:58.531Z,526.00
2023-05-20T06:49:59.334Z,521.00
2023-05-20T06:50:59.508Z,527.00
2023-05-20T06:51:58.410Z,523.00
2023-05-20T06:52:58.599Z,529.00
2023-05-20T06:53:59.430Z,526.00
2023-05-20T06:54:59.423Z,528.00
2023-05-20T06:55:59.623Z,529.00
2023-05-20T06:56:58.676Z,523.00
2023-05-20T06:57:58.659Z,525.00
2023-05-20T06:58:58.665Z,530.00
2023-05-20T06:59:58.571Z,526.00
2023-05-20T07:00:59.635Z,529.00
2023-05-20T07:01:58.615Z,528.00
2023-05-20T07:02:59.681Z,526.00
2023-05-20T07:03:59.834Z,526.00
2023-05-20T07:04:59.726Z,522.00
2023-05-20T07:05:58.707Z,525.00
2023-05-20T07:06:58.741Z,526.00
2023-05-20T07:07:59.778Z,528.00
2023-05-20T07:08:59.741Z,526.00
2023-05-20T07:09:59.884Z,527.00
2023-05-20T07:10:58.868Z,523.00
2023-05-20T07:11:58.907Z,529.00
2023-05-20T07:12:58.893Z,529.00
2023-05-20T07:13:59.971Z,527.00
2023-05-20T07:14:59.996Z,523.00
2023-05-20T07:15:59.128Z,525.00
2023-05-20T07:16:59.270Z,527.00
2023-05-20T07:17:59.114Z,531.00
2023-05-20T07:18:59.152Z,530.00
2023-05-20T07:19:59.286Z,523.00
2023-05-20T07:20:59.436Z,531.00
2023-05-20T07:21:59.334Z,525.00
2023-05-20T07:22:59.196Z,524.00
2023-05-20T07:24:00.309Z,523.00
2023-05-20T07:24:59.273Z,526.00
2023-05-20T07:25:59.248Z,527.00
2023-05-20T07:27:00.370Z,526.00
2023-05-20T07:27:59.387Z,523.00
2023-05-20T07:28:59.401Z,528.00
2023-05-20T07:30:00.375Z,526.00
2023-05-20T07:31:00.353Z,523.00
2023-05-20T07:31:59.523Z,528.00
2023-05-20T07:32:59.548Z,527.00
2023-05-20T07:34:00.403Z,530.00
2023-05-20T07:34:59.382Z,522.00
2023-05-20T07:35:59.481Z,522.00
2023-05-20T07:37:00.453Z,526.00
2023-05-20T07:37:59.436Z,525.00
2023-05-20T07:39:03.938Z,529.00
2023-05-20T07:40:00.614Z,529.00
2023-05-20T07:40:59.642Z,530.00
2023-05-20T07:42:00.538Z,526.00
2023-05-20T07:42:59.424Z,530.00
2023-05-20T07:44:00.448Z,525.00
2023-05-20T07:44:59.485Z,528.00
2023-05-20T07:45:59.715Z,536.00
2023-05-20T07:46:59.656Z,533.00
2023-05-20T07:48:00.435Z,525.00
2023-05-20T07:49:00.590Z,526.00
2023-05-20T07:50:00.592Z,525.00
2023-05-20T07:51:00.526Z,525.00
2023-05-20T07:52:02.861Z,526.00
2023-05-20T07:53:00.531Z,526.00
2023-05-20T07:54:00.521Z,527.00
2023-05-20T07:54:59.557Z,528.00
2023-05-20T07:56:00.562Z,529.00
2023-05-20T07:56:59.328Z,529.00
2023-05-20T07:58:00.341Z,529.00
2023-05-20T07:58:59.455Z,532.00
2023-05-20T07:59:59.413Z,527.00
2023-05-20T08:00:59.313Z,530.00
2023-05-20T08:02:00.497Z,532.00
2023-05-20T08:02:59.474Z,527.00
2023-05-20T08:04:00.514Z,528.00
2023-05-20T08:04:59.281Z,523.00
2023-05-20T08:05:59.434Z,524.00
2023-05-20T08:06:59.322Z,525.00
2023-05-20T08:07:59.272Z,531.00
2023-05-20T08:08:59.323Z,528.00
2023-05-20T08:09:59.291Z,531.00
2023-05-20T08:10:59.240Z,523.00
2023-05-20T08:11:59.240Z,527.00
2023-05-20T08:12:59.319Z,530.00
2023-05-20T08:14:00.316Z,523.00
2023-05-20T08:15:00.292Z,529.00
2023-05-20T08:15:59.273Z,524.00
2023-05-20T08:17:00.234Z,532.00
2023-05-20T08:18:00.346Z,526.00
2023-05-20T08:19:00.481Z,522.00
2023-05-20T08:19:59.249Z,526.00
2023-05-20T08:20:59.265Z,524.00
2023-05-20T08:21:59.276Z,522.00
2023-05-20T08:22:59.264Z,524.00
2023-05-20T08:24:00.274Z,531.00
2023-05-20T08:24:59.147Z,520.00
2023-05-20T08:26:00.148Z,520.00
2023-05-20T08:26:59.143Z,524.00
2023-05-20T08:27:59.149Z,520.00
2023-05-20T08:29:00.215Z,524.00
2023-05-20T08:30:00.653Z,523.00
2023-05-20T08:30:59.151Z,531.00
2023-05-20T08:31:59.099Z,521.00
2023-05-20T08:32:59.108Z,529.00
2023-05-20T08:33:59.368Z,525.00
2023-05-20T08:35:00.066Z,525.00
2023-05-20T08:35:59.222Z,523.00
2023-05-20T08:36:59.065Z,526.00
2023-05-20T08:41:51.816Z,500.00
2023-05-20T08:42:52.708Z,500.00
2023-05-20T08:43:51.908Z,500.00
2023-05-20T08:44:51.736Z,500.00
2023-05-20T08:45:52.074Z,500.00
2023-05-20T08:46:53.120Z,500.00
2023-05-20T08:47:51.936Z,500.00
2023-05-20T08:48:51.969Z,501.00
2023-05-20T08:49:52.919Z,499.00
2023-05-20T08:50:51.931Z,504.00
2023-05-20T08:51:51.981Z,502.00
2023-05-20T08:54:11.436Z,500.00
2023-05-20T08:55:11.380Z,500.00
2023-05-20T08:56:11.189Z,500.00
2023-05-20T08:57:12.162Z,500.00
2023-05-20T08:58:12.195Z,500.00
2023-05-20T08:59:11.428Z,502.00
2023-05-20T09:00:11.284Z,502.00
2023-05-20T09:01:12.376Z,501.00
2023-05-20T09:02:12.283Z,500.00
2023-05-20T09:03:11.142Z,505.00
2023-05-20T09:04:11.111Z,501.00
2023-05-20T09:05:11.235Z,499.00
2023-05-20T09:06:12.111Z,505.00
2023-05-20T09:07:11.127Z,501.00
2023-05-20T09:08:11.072Z,503.00
2023-05-20T09:09:11.074Z,505.00
2023-05-20T09:10:12.287Z,504.00
2023-05-20T09:11:12.266Z,503.00
2023-05-20T09:12:11.107Z,502.00
2023-05-20T09:13:11.212Z,505.00
2023-05-20T09:14:11.026Z,502.00
2023-05-20T09:15:12.075Z,503.00
2023-05-20T09:16:12.169Z,503.00
2023-05-20T09:17:11.230Z,503.00
2023-05-20T09:18:12.182Z,507.00
2023-05-20T09:19:12.101Z,504.00
2023-05-20T09:20:12.083Z,508.00
2023-05-20T09:21:12.226Z,501.00
2023-05-20T09:22:12.024Z,505.00
2023-05-20T09:23:11.060Z,503.00
2023-05-20T09:24:11.108Z,506.00
2023-05-20T09:25:11.968Z,511.00
2023-05-20T09:26:11.038Z,509.00
2023-05-20T09:27:11.008Z,506.00
2023-05-20T09:28:11.949Z,502.00
2023-05-20T09:29:11.033Z,504.00
2023-05-20T09:30:10.998Z,502.00
2023-05-20T09:31:11.915Z,505.00
2023-05-20T09:32:11.950Z,500.00
2023-05-20T09:33:11.110Z,505.00
2023-05-20T09:34:11.899Z,506.00
2023-05-20T09:35:12.092Z,501.00
2023-05-20T09:36:10.950Z,500.00
2023-05-20T09:37:10.902Z,507.00
2023-05-20T09:38:10.855Z,511.00
2023-05-20T09:39:11.858Z,510.00
2023-05-20T09:40:11.984Z,509.00
2023-05-20T09:41:11.937Z,510.00
2023-05-20T09:42:10.960Z,512.00
2023-05-20T09:43:12.047Z,508.00
2023-05-20T09:44:11.912Z,506.00
2023-05-20T09:45:10.819Z,511.00
2023-05-20T09:46:10.871Z,508.00
2023-05-20T09:47:11.811Z,509.00
2023-05-20T09:48:11.012Z,514.00
2023-05-20T09:49:11.956Z,507.00
2023-05-20T09:50:10.814Z,509.00
2023-05-20T09:51:10.876Z,508.00
2023-05-20T09:52:10.769Z,507.00
2023-05-20T09:53:10.814Z,507.00
2023-05-20T09:54:10.799Z,508.00
2023-05-20T09:55:11.932Z,510.00
2023-05-20T09:56:11.872Z,513.00
2023-05-20T09:57:10.969Z,512.00
2023-05-20T09:58:10.801Z,510.00
2023-05-20T09:59:10.988Z,514.00
2023-05-20T10:00:12.098Z,512.00
2023-05-20T10:01:11.971Z,508.00
2023-05-20T10:02:10.900Z,508.00
2023-05-20T10:03:11.145Z,511.00
2023-05-20T10:04:11.942Z,512.00
2023-05-20T10:05:12.017Z,509.00
2023-05-20T10:06:11.076Z,511.00
2023-05-20T10:07:11.069Z,508.00
2023-05-20T10:08:11.074Z,510.00
2023-05-20T10:09:12.213Z,510.00
2023-05-20T10:10:11.223Z,507.00
2023-05-20T10:11:11.224Z,512.00
2023-05-20T10:12:11.315Z,503.00
2023-05-20T10:13:12.172Z,509.00
2023-05-20T10:14:12.177Z,514.00
2023-05-20T10:15:12.167Z,511.00
2023-05-20T10:16:12.368Z,507.00
2023-05-20T10:17:11.192Z,512.00
2023-05-20T10:18:12.438Z,507.00
2023-05-20T10:19:12.224Z,506.00
2023-05-20T10:20:11.155Z,505.00
2023-05-20T10:21:12.175Z,504.00
2023-05-20T10:22:11.408Z,510.00
2023-05-20T10:23:11.442Z,511.00
2023-05-20T10:24:12.392Z,511.00
2023-05-20T10:25:11.367Z,510.00
2023-05-20T10:26:11.375Z,507.00
2023-05-20T10:27:11.257Z,508.00
2023-05-20T10:28:12.252Z,508.00
2023-05-20T10:29:12.269Z,507.00
2023-05-20T10:30:11.307Z,505.00
2023-05-20T10:31:11.333Z,513.00
2023-05-20T10:32:11.364Z,506.00
2023-05-20T10:33:11.499Z,512.00
2023-05-20T10:34:11.408Z,513.00
2023-05-20T10:35:11.440Z,512.00
2023-05-20T10:36:11.476Z,509.00
2023-05-20T10:37:12.420Z,510.00
2023-05-20T10:38:11.443Z,507.00
2023-05-20T10:39:12.413Z,507.00
2023-05-20T10:40:11.426Z,505.00
2023-05-20T10:41:12.448Z,506.00
2023-05-20T10:42:12.410Z,510.00
2023-05-20T10:43:11.397Z,511.00
2023-05-20T10:44:12.386Z,510.00
2023-05-20T10:45:11.420Z,509.00
2023-05-20T10:46:26.243Z,505.00
2023-05-20T10:48:11.458Z,506.00
2023-05-20T10:49:12.538Z,507.00
2023-05-20T10:50:12.399Z,508.00
2023-05-20T10:51:12.543Z,507.00
2023-05-20T10:52:11.453Z,510.00
2023-05-20T10:53:18.571Z,506.00
2023-05-20T10:54:12.521Z,507.00
2023-05-20T10:55:11.329Z,508.00
2023-05-20T10:56:11.408Z,509.00
2023-05-20T10:57:11.435Z,507.00
2023-05-20T10:58:12.390Z,510.00
2023-05-20T10:59:11.318Z,515.00
2023-05-20T11:00:12.336Z,507.00
2023-05-20T11:01:11.393Z,507.00
2023-05-20T11:02:12.352Z,509.00
2023-05-20T11:03:12.503Z,507.00
2023-05-20T11:04:11.457Z,508.00
2023-05-20T11:05:11.367Z,504.00
2023-05-20T11:06:12.423Z,509.00
2023-05-20T11:07:12.495Z,508.00
2023-05-20T11:08:27.144Z,508.00
2023-05-20T11:09:12.517Z,509.00
2023-05-20T11:10:12.509Z,511.00
2023-05-20T11:11:11.707Z,510.00
2023-05-20T11:12:12.653Z,513.00
2023-05-20T11:13:11.640Z,506.00
2023-05-20T11:14:11.492Z,510.00
2023-05-20T11:15:12.593Z,509.00
2023-05-20T11:16:11.728Z,506.00
2023-05-20T11:17:11.660Z,509.00
2023-05-20T11:18:11.642Z,509.00
2023-05-20T11:19:12.474Z,507.00
2023-05-20T11:20:12.444Z,510.00
2023-05-20T11:21:12.658Z,505.00
2023-05-20T11:22:11.433Z,500.00
2023-05-20T11:23:11.704Z,505.00
2023-05-20T11:24:12.633Z,511.00
2023-05-20T11:25:11.613Z,502.00
2023-05-20T11:26:11.413Z,504.00
2023-05-20T11:27:12.490Z,502.00
2023-05-20T11:28:12.500Z,509.00
2023-05-20T11:29:12.499Z,505.00
2023-05-20T11:30:12.369Z,504.00
2023-05-20T11:31:11.368Z,503.00
2023-05-20T11:32:11.562Z,506.00
2023-05-20T11:33:11.382Z,506.00
2023-05-20T11:34:12.437Z,508.00
2023-05-20T11:35:12.546Z,506.00
2023-05-20T11:36:26.392Z,505.00
2023-05-20T11:37:12.368Z,506.00
2023-05-20T11:38:11.368Z,507.00
2023-05-20T11:39:12.355Z,506.00
2023-05-20T11:40:12.345Z,505.00
2023-05-20T11:41:12.370Z,509.00
2023-05-20T11:42:12.586Z,504.00
2023-05-20T11:43:11.430Z,505.00
2023-05-20T11:44:12.537Z,504.00
2023-05-20T11:45:11.513Z,507.00
2023-05-20T11:46:11.653Z,505.00
2023-05-20T11:47:11.744Z,503.00
2023-05-20T11:48:11.637Z,504.00
2023-05-20T11:49:12.861Z,504.00
2023-05-20T11:50:11.768Z,504.00
2023-05-20T11:51:12.749Z,505.00
2023-05-20T11:52:12.962Z,504.00
2023-05-20T11:53:12.072Z,504.00
2023-05-20T11:54:11.904Z,504.00
2023-05-20T11:55:12.949Z,503.00
2023-05-20T11:56:11.992Z,502.00
2023-05-20T11:57:12.045Z,504.00
2023-05-20T11:58:13.354Z,507.00
2023-05-20T11:59:12.266Z,501.00
2023-05-20T12:00:12.333Z,501.00
2023-05-20T12:01:21.599Z,505.00
2023-05-20T12:02:15.890Z,506.00
2023-05-20T12:03:13.649Z,506.00
2023-05-20T12:04:13.517Z,507.00
2023-05-20T12:05:12.257Z,508.00
2023-05-20T12:06:13.307Z,507.00
2023-05-20T12:07:12.256Z,512.00
2023-05-20T12:08:12.253Z,504.00
2023-05-20T12:09:13.295Z,506.00
2023-05-20T12:10:12.257Z,505.00
2023-05-20T12:11:12.248Z,513.00
2023-05-20T12:12:13.339Z,507.00
2023-05-20T12:13:13.220Z,502.00
2023-05-20T12:14:12.222Z,509.00
2023-05-20T12:15:13.330Z,506.00
2023-05-20T12:16:12.220Z,505.00
2023-05-20T12:17:13.221Z,507.00
2023-05-20T12:18:13.188Z,501.00
2023-05-20T12:19:13.225Z,503.00
2023-05-20T12:20:13.173Z,509.00
2023-05-20T12:21:13.288Z,505.00
2023-05-20T12:22:12.275Z,504.00
2023-05-20T12:23:13.348Z,504.00
2023-05-20T12:24:12.460Z,502.00
2023-05-20T12:25:12.535Z,502.00
2023-05-20T12:26:13.656Z,505.00
2023-05-20T12:27:12.568Z,506.00
2023-05-20T12:28:13.621Z,507.00
2023-05-20T12:29:12.693Z,507.00
2023-05-20T12:30:12.854Z,507.00
2023-05-20T12:31:12.791Z,509.00
2023-05-20T12:32:13.002Z,508.00
2023-05-20T12:33:12.927Z,513.00
2023-05-20T12:34:13.982Z,506.00
2023-05-20T12:35:13.009Z,506.00